Terminal Aerodrome Forecast
Issued by NWS

Current Version | Previous Version | Graphics & Text | Print | Product List | Glossary On
Versions: 1 2 3 4 5 6 7 8 9 10 11 12 13 14 15 16 17 18 19 20 21 22 23 24 25 26 27 28 29 30 31 32 33 34 35 36 37 38 39 40 41 42 43 44 45
006
FTUS41 KRNK 260729 AAC
TAFLWB
TAF AMD
KLWB 260729Z 2607/2706 03003KT 2SM BR BKN025
      TEMPO 2607/2609 3/4SM BR BKN001
     FM261000 03004KT 3/4SM BR BKN001
      TEMPO 2610/2612 1/4SM FG OVC001
     FM261300 VRB03KT 4SM BR SCT005 SCT200
     FM261400 03005KT P6SM SCT035 BKN250=

USA.gov is the U.S. government's official web portal to all federal, state and local government web resources and services.